createdAt,value
2022-11-20T00:02:54.678Z,2.59
2022-11-20T00:08:27.289Z,2.59
2022-11-20T00:14:00.817Z,2.59
2022-11-20T00:19:32.111Z,2.60
2022-11-20T00:25:03.788Z,2.59
2022-11-20T00:30:34.872Z,2.61
2022-11-20T00:36:08.678Z,2.59
2022-11-20T00:41:40.030Z,2.59
2022-11-20T00:47:12.722Z,2.57
2022-11-20T00:52:44.022Z,2.57
2022-11-20T00:58:15.023Z,2.57
2022-11-20T01:03:48.223Z,2.55
2022-11-20T01:09:19.420Z,2.56
2022-11-20T01:14:51.213Z,2.57
2022-11-20T01:20:22.130Z,2.55
2022-11-20T01:25:53.288Z,2.53
2022-11-20T01:31:26.923Z,2.51
2022-11-20T01:36:58.470Z,2.50
2022-11-20T01:42:48.103Z,2.52
2022-11-20T01:48:21.633Z,2.52
2022-11-20T01:53:55.607Z,2.52
2022-11-20T01:59:27.949Z,2.54
2022-11-20T02:05:04.560Z,2.56
2022-11-20T02:10:36.466Z,2.54
2022-11-20T02:16:22.302Z,2.53
2022-11-20T02:22:23.014Z,2.54
2022-11-20T02:27:54.395Z,2.53
2022-11-20T02:33:25.903Z,2.53
2022-11-20T02:38:56.878Z,2.51
2022-11-20T02:44:28.058Z,2.49
2022-11-20T02:49:59.768Z,2.50
2022-11-20T02:55:30.910Z,2.51
2022-11-20T03:01:02.009Z,2.52
2022-11-20T03:06:33.397Z,2.52
2022-11-20T03:12:04.847Z,2.49
2022-11-20T03:17:36.095Z,2.50
2022-11-20T03:23:07.502Z,2.48
2022-11-20T03:28:39.265Z,2.46
2022-11-20T03:34:12.429Z,2.47
2022-11-20T03:39:43.500Z,2.47
2022-11-20T03:45:16.213Z,2.48
2022-11-20T03:50:48.840Z,2.51
2022-11-20T03:56:22.635Z,2.51
2022-11-20T04:01:53.688Z,2.51
2022-11-20T04:07:24.960Z,2.48
2022-11-20T04:12:56.056Z,2.43
2022-11-20T04:18:27.158Z,2.40
2022-11-20T04:23:58.698Z,2.43
2022-11-20T04:29:30.146Z,2.44
2022-11-20T04:35:01.596Z,2.45
2022-11-20T04:40:33.155Z,2.47
2022-11-20T04:46:04.340Z,2.45
2022-11-20T04:51:36.219Z,2.43
2022-11-20T04:57:12.939Z,2.42
2022-11-20T05:02:45.788Z,2.41
2022-11-20T05:08:17.038Z,2.41
2022-11-20T05:13:50.240Z,2.42
2022-11-20T05:19:21.991Z,2.44
2022-11-20T05:24:53.066Z,2.44
2022-11-20T05:30:24.380Z,2.45
2022-11-20T05:35:59.808Z,2.45
2022-11-20T05:41:31.236Z,2.48
2022-11-20T05:47:02.217Z,2.47
2022-11-20T05:52:33.424Z,2.45
2022-11-20T05:58:04.983Z,2.42
2022-11-20T06:03:36.555Z,2.41
2022-11-20T06:09:07.939Z,2.41
2022-11-20T06:14:39.223Z,2.40
2022-11-20T06:20:11.343Z,2.40
2022-11-20T06:25:44.086Z,2.39
2022-11-20T06:31:17.157Z,2.42
2022-11-20T06:36:48.222Z,2.46
2022-11-20T06:42:19.578Z,2.49
2022-11-20T06:47:51.039Z,2.52
2022-11-20T06:53:23.717Z,2.57
2022-11-20T06:58:55.021Z,2.58
2022-11-20T07:04:26.439Z,2.62
2022-11-20T07:09:58.164Z,2.65
2022-11-20T07:15:29.893Z,2.68
2022-11-20T07:21:02.916Z,2.68
2022-11-20T07:26:33.894Z,2.69
2022-11-20T07:32:05.536Z,2.70
2022-11-20T07:37:37.304Z,2.71
2022-11-20T07:43:08.946Z,2.72
2022-11-20T07:48:40.196Z,2.70
2022-11-20T07:54:11.529Z,2.70
2022-11-20T07:59:43.558Z,2.69
2022-11-20T08:05:14.872Z,2.68
2022-11-20T08:10:46.012Z,2.68
2022-11-20T08:16:17.131Z,2.67
2022-11-20T08:21:48.708Z,2.65
2022-11-20T08:27:25.362Z,2.66
2022-11-20T08:33:21.179Z,2.67
2022-11-20T08:38:55.039Z,2.69
2022-11-20T08:44:29.768Z,2.68
2022-11-20T08:50:01.789Z,2.69
2022-11-20T08:55:33.477Z,2.69
2022-11-20T09:05:23.206Z,2.93
2022-11-20T09:10:55.853Z,2.75
2022-11-20T09:16:32.207Z,2.68
2022-11-20T09:22:05.013Z,2.66
2022-11-20T09:27:36.937Z,2.66
2022-11-20T09:33:08.451Z,2.71
2022-11-20T09:38:39.920Z,2.68
2022-11-20T09:44:43.587Z,2.68
2022-11-20T09:50:52.681Z,2.66
2022-11-20T09:56:25.022Z,2.63
2022-11-20T10:01:57.019Z,2.63
2022-11-20T10:07:41.857Z,2.61
2022-11-20T10:13:14.112Z,2.59
2022-11-20T10:19:20.270Z,2.57
2022-11-20T10:25:08.670Z,2.56
2022-11-20T10:30:43.996Z,2.56
2022-11-20T10:36:37.909Z,2.55
2022-11-20T10:42:15.839Z,2.53
2022-11-20T10:47:47.345Z,2.53
2022-11-20T10:53:44.823Z,2.55
2022-11-20T10:59:50.698Z,2.59
2022-11-20T11:05:21.744Z,2.59
2022-11-20T11:11:00.692Z,2.63
2022-11-20T11:16:31.833Z,2.66
2022-11-20T11:22:12.489Z,2.70
2022-11-20T11:27:50.429Z,2.62
2022-11-20T11:33:32.579Z,2.63
2022-11-20T11:39:05.982Z,2.63
2022-11-20T11:44:56.650Z,2.69
2022-11-20T11:50:30.306Z,2.71
2022-11-20T11:56:07.331Z,2.71
2022-11-20T12:02:14.273Z,2.71
2022-11-20T12:07:52.513Z,2.73
2022-11-20T12:13:43.977Z,2.72
2022-11-20T12:19:15.757Z,2.72
2022-11-20T12:25:08.548Z,2.74
2022-11-20T12:31:01.202Z,2.75
2022-11-20T12:36:35.225Z,2.76
2022-11-20T12:43:26.737Z,2.76
2022-11-20T12:49:06.452Z,2.75
2022-11-20T12:54:51.895Z,2.77
2022-11-20T13:00:24.712Z,2.78
2022-11-20T13:06:04.599Z,2.76
2022-11-20T13:11:44.480Z,2.76
2022-11-20T13:17:29.021Z,2.79
2022-11-20T13:23:01.110Z,2.79
2022-11-20T13:28:33.395Z,2.80
2022-11-20T13:34:05.965Z,2.81
2022-11-20T13:39:38.136Z,2.83
2022-11-20T13:45:23.888Z,2.84
2022-11-20T13:51:01.003Z,2.86
2022-11-20T13:57:03.336Z,2.85
2022-11-20T14:02:35.116Z,2.85
2022-11-20T14:08:08.136Z,2.86
2022-11-20T14:13:39.366Z,2.85
2022-11-20T14:19:22.844Z,2.83
2022-11-20T14:25:16.652Z,2.80
2022-11-20T14:30:51.334Z,2.79
2022-11-20T14:36:24.618Z,2.79
2022-11-20T14:41:56.004Z,2.75
2022-11-20T14:47:28.705Z,2.72
2022-11-20T14:53:02.320Z,2.72
2022-11-20T14:58:34.582Z,2.70
2022-11-20T15:04:12.408Z,2.71
2022-11-20T15:09:43.722Z,2.71
2022-11-20T15:15:30.641Z,2.71
2022-11-20T15:21:03.948Z,2.69
2022-11-20T15:26:36.022Z,2.67
2022-11-20T15:32:13.173Z,2.66
2022-11-20T15:37:44.760Z,2.66
2022-11-20T15:43:16.111Z,2.64
2022-11-20T15:48:53.643Z,2.64
2022-11-20T15:54:25.112Z,2.65
2022-11-20T15:59:56.596Z,2.67
2022-11-20T16:05:31.040Z,2.68
2022-11-20T16:11:02.771Z,2.70
2022-11-20T16:16:36.295Z,2.71
2022-11-20T16:22:07.305Z,2.71
2022-11-20T16:27:38.735Z,2.72
2022-11-20T16:33:15.202Z,2.69
2022-11-20T16:38:46.726Z,2.70
2022-11-20T16:44:18.965Z,2.69
2022-11-20T16:49:50.513Z,2.67
2022-11-20T16:55:21.388Z,2.67
2022-11-20T17:00:52.382Z,2.66
2022-11-20T17:06:26.416Z,2.65
2022-11-20T17:11:57.607Z,2.65
2022-11-20T17:17:28.776Z,2.63
2022-11-20T17:22:59.909Z,2.64
2022-11-20T17:28:32.079Z,2.63
2022-11-20T17:34:03.236Z,2.61
2022-11-20T17:39:34.583Z,2.63
2022-11-20T17:45:05.892Z,2.61
2022-11-20T17:50:37.099Z,2.59
2022-11-20T17:56:27.210Z,2.57
2022-11-20T18:02:03.316Z,2.59
2022-11-20T18:07:40.262Z,2.58
2022-11-20T18:13:12.808Z,2.57
2022-11-20T18:18:43.973Z,2.59
2022-11-20T18:24:15.529Z,2.58
2022-11-20T18:29:48.726Z,2.57
2022-11-20T18:35:19.715Z,2.55
2022-11-20T18:40:50.947Z,2.54
2022-11-20T18:46:22.417Z,2.53
2022-11-20T18:51:53.963Z,2.52
2022-11-20T18:57:27.276Z,2.53
2022-11-20T19:02:58.631Z,2.51
2022-11-20T19:08:29.847Z,2.49
2022-11-20T19:14:01.091Z,2.48
2022-11-20T19:19:32.208Z,2.47
2022-11-20T19:25:03.746Z,2.47
2022-11-20T19:30:34.775Z,2.44
2022-11-20T19:36:27.642Z,2.41
2022-11-20T19:41:58.624Z,2.45
2022-11-20T19:47:52.647Z,2.44
2022-11-20T19:53:21.017Z,2.42
2022-11-20T19:58:54.185Z,2.41
2022-11-20T20:04:25.554Z,2.40
2022-11-20T20:09:56.470Z,2.39
2022-11-20T20:15:27.795Z,2.36
2022-11-20T20:21:07.088Z,2.40
2022-11-20T20:26:38.334Z,2.43
2022-11-20T20:32:09.511Z,2.43
2022-11-20T20:37:40.613Z,2.43
2022-11-20T20:43:11.917Z,2.41
2022-11-20T20:48:42.767Z,2.43
2022-11-20T20:54:14.047Z,2.46
2022-11-20T20:59:45.548Z,2.43
2022-11-20T21:05:16.597Z,2.40
2022-11-20T21:10:48.799Z,2.35
2022-11-20T21:16:22.707Z,2.35
2022-11-20T21:21:59.757Z,2.31
2022-11-20T21:27:31.019Z,2.27
2022-11-20T21:33:02.207Z,2.27
2022-11-20T21:38:34.586Z,2.25
2022-11-20T21:44:30.174Z,2.21
2022-11-20T21:49:57.832Z,2.17
2022-11-20T21:55:29.168Z,2.17
2022-11-20T22:01:00.660Z,2.14
2022-11-20T22:06:34.503Z,2.10
2022-11-20T22:12:05.841Z,2.07
2022-11-20T22:17:54.993Z,2.05
2022-11-20T22:23:26.168Z,2.03
2022-11-20T22:28:58.670Z,2.06
2022-11-20T22:34:29.746Z,2.05
2022-11-20T22:40:01.018Z,2.03
2022-11-20T22:45:32.579Z,1.99
2022-11-20T22:51:08.662Z,1.97
2022-11-20T22:56:40.528Z,1.96
2022-11-20T23:02:11.620Z,1.96
2022-11-20T23:07:43.988Z,1.96
2022-11-20T23:13:14.705Z,1.95
2022-11-20T23:18:46.367Z,1.92
2022-11-20T23:24:17.306Z,1.92
2022-11-20T23:29:48.514Z,1.94
2022-11-20T23:35:19.604Z,1.94
2022-11-20T23:40:52.003Z,1.93
2022-11-20T23:46:23.081Z,1.92
2022-11-20T23:51:54.306Z,1.93
2022-11-20T23:57:25.783Z,1.91
